Time;durP1;ratioP1;P1;durP2;ratioP2;P2;SDS_P1;SDS_P2;PMS_P1;PMS_P2;Temp;Humidity;BMP_temperature;BMP_pressure;BME280_temperature;BME280_humidity;BME280_pressure;Samples;Min_cycle;Max_cycle;Signal;HPM_P1;HPM_P2
2022/07/06 00:01:27;;;;;;;2.60;2.40;;;;;;;17.62;100.00;99667.75;4989856;28;20199;-78
2022/07/06 00:03:55;;;;;;;3.40;2.20;;;;;;;17.49;100.00;99668.94;4987113;28;20231;-77
2022/07/06 00:06:24;;;;;;;6.57;2.20;;;;;;;17.51;100.00;99672.34;4988631;28;20235;-78
2022/07/06 00:08:52;;;;;;;3.37;2.20;;;;;;;17.38;100.00;99668.00;4983828;28;20196;-78
2022/07/06 00:11:21;;;;;;;3.50;2.10;;;;;;;17.34;100.00;99669.22;4990521;28;20223;-77
2022/07/06 00:13:51;;;;;;;8.37;2.37;;;;;;;17.37;100.00;99668.13;4986813;28;20273;-78
2022/07/06 00:16:20;;;;;;;2.80;2.40;;;;;;;17.39;100.00;99669.72;4990604;28;20203;-78
2022/07/06 00:18:48;;;;;;;5.70;2.87;;;;;;;17.26;100.00;99666.34;4988874;28;20226;-78
2022/07/06 00:21:16;;;;;;;7.07;3.40;;;;;;;17.31;100.00;99663.28;4986339;28;20209;-78
2022/07/06 00:23:45;;;;;;;10.83;3.90;;;;;;;17.39;100.00;99667.03;4987474;28;20203;-78
2022/07/06 00:26:14;;;;;;;8.37;3.77;;;;;;;17.29;100.00;99670.63;4986567;28;20218;-78
2022/07/06 00:28:42;;;;;;;11.03;3.67;;;;;;;17.25;100.00;99672.69;4991665;28;20203;-78
2022/07/06 00:31:12;;;;;;;10.47;3.63;;;;;;;17.32;100.00;99675.69;4987550;28;20210;-78
2022/07/06 00:33:41;;;;;;;8.43;3.40;;;;;;;17.38;100.00;99672.53;4986922;28;20195;-78
2022/07/06 00:36:09;;;;;;;7.77;3.40;;;;;;;17.41;100.00;99669.56;4989085;28;20238;-78
2022/07/06 00:38:37;;;;;;;6.97;3.37;;;;;;;17.47;100.00;99671.75;4986147;28;20203;-78
2022/07/06 00:41:06;;;;;;;5.77;2.70;;;;;;;17.51;100.00;99667.81;4966504;28;20226;-78
2022/07/06 00:43:51;;;;;;;5.60;2.70;;;;;;;17.48;100.00;99676.13;4989965;28;20203;-78
2022/07/06 00:46:24;;;;;;;4.87;2.53;;;;;;;17.51;100.00;99672.34;4990240;28;20222;-78
2022/07/06 00:48:52;;;;;;;7.30;2.70;;;;;;;17.32;100.00;99671.19;4984805;28;20229;-78
2022/07/06 00:51:23;;;;;;;4.90;2.40;;;;;;;17.38;100.00;99668.00;4992766;28;20230;-78
2022/07/06 00:53:52;;;;;;;5.83;2.43;;;;;;;17.40;100.00;99665.22;4992178;28;20641;-78
2022/07/06 00:56:21;;;;;;;9.10;2.47;;;;;;;17.31;100.00;99671.34;4993610;28;20213;-78
2022/07/06 00:58:50;;;;;;;3.77;2.10;;;;;;;17.31;100.00;99674.00;4991585;28;20214;-78
2022/07/06 01:01:18;;;;;;;6.70;2.33;;;;;;;17.25;100.00;99666.47;4990151;28;20207;-79
2022/07/06 01:03:48;;;;;;;3.90;2.00;;;;;;;17.27;100.00;99667.19;4994090;28;20703;-78
2022/07/06 01:06:17;;;;;;;4.67;2.20;;;;;;;17.15;100.00;99669.06;4990538;28;20443;-78
2022/07/06 01:08:45;;;;;;;3.63;2.27;;;;;;;17.01;100.00;99664.88;4995086;28;20222;-79
2022/07/06 01:11:13;;;;;;;7.50;2.20;;;;;;;17.01;100.00;99656.84;4991975;28;20210;-78
2022/07/06 01:13:42;;;;;;;6.77;2.20;;;;;;;16.99;100.00;99664.16;4999244;28;20242;-78
2022/07/06 01:16:11;;;;;;;6.27;2.20;;;;;;;16.84;100.00;99666.25;4990397;28;20203;-78
2022/07/06 01:18:39;;;;;;;7.27;2.53;;;;;;;16.93;100.00;99672.69;4995309;28;20203;-78
2022/07/06 01:21:12;;;;;;;3.90;2.03;;;;;;;16.80;100.00;99662.13;4992490;28;20205;-78
2022/07/06 01:23:42;;;;;;;4.77;2.33;;;;;;;16.74;100.00;99656.44;4996441;28;20203;-78
2022/07/06 01:26:13;;;;;;;4.80;2.20;;;;;;;16.85;100.00;99659.06;4991844;28;20202;-78
2022/07/06 01:28:41;;;;;;;6.23;2.50;;;;;;;16.74;100.00;99659.94;4992836;28;20195;-79
2022/07/06 01:31:18;;;;;;;4.10;2.50;;;;;;;16.84;100.00;99660.06;4986896;28;20301;-78
2022/07/06 01:33:47;;;;;;;2.87;2.13;;;;;;;16.74;100.00;99653.75;4988323;28;20238;-78
2022/07/06 01:36:17;;;;;;;4.40;2.10;;;;;;;16.73;100.00;99657.41;4991984;28;20314;-78
2022/07/06 01:38:47;;;;;;;2.63;2.00;;;;;;;16.85;100.00;99656.38;4988311;28;20230;-78
2022/07/06 01:41:16;;;;;;;4.57;2.10;;;;;;;16.72;100.00;99664.59;4988314;28;20207;-79
2022/07/06 01:43:44;;;;;;;3.37;2.10;;;;;;;16.78;100.00;99666.75;4988685;28;20203;-78
2022/07/06 01:46:12;;;;;;;4.33;2.23;;;;;;;16.67;100.00;99656.03;4989901;28;20206;-78
2022/07/06 01:48:41;;;;;;;5.17;2.27;;;;;;;16.69;100.00;99661.28;4995971;28;20286;-78
2022/07/06 01:51:11;;;;;;;5.60;2.47;;;;;;;16.72;100.00;99669.09;4991088;28;20206;-78
2022/07/06 01:53:42;;;;;;;6.33;2.40;;;;;;;16.78;100.00;99660.53;4985335;28;20669;-78
2022/07/06 01:56:12;;;;;;;5.23;2.30;;;;;;;16.67;100.00;99650.69;4989729;28;20214;-78
2022/07/06 01:58:40;;;;;;;3.67;2.40;;;;;;;16.75;100.00;99655.44;4992378;28;20188;-78
2022/07/06 02:01:10;;;;;;;3.67;2.30;;;;;;;16.52;100.00;99657.28;4991917;28;20199;-79
2022/07/06 02:03:39;;;;;;;4.03;2.37;;;;;;;16.39;100.00;99668.09;4992049;28;20199;-79
2022/07/06 02:06:08;;;;;;;2.60;2.30;;;;;;;16.42;100.00;99670.56;4991131;28;20199;-78
2022/07/06 02:08:37;;;;;;;4.33;2.40;;;;;;;16.33;100.00;99665.09;4987570;28;20218;-78
2022/07/06 02:11:08;;;;;;;3.23;2.40;;;;;;;16.36;100.00;99663.00;4987948;28;20221;-78
2022/07/06 02:13:37;;;;;;;2.63;2.43;;;;;;;16.27;100.00;99664.59;4989297;28;20258;-78
2022/07/06 02:16:05;;;;;;;5.10;2.40;;;;;;;16.27;100.00;99664.59;4992208;28;20221;-78
2022/07/06 02:18:33;;;;;;;2.93;2.33;;;;;;;16.23;100.00;99662.28;4989319;28;20198;-78
2022/07/06 02:21:02;;;;;;;3.23;2.37;;;;;;;16.27;100.00;99674.44;4990470;28;20199;-78
2022/07/06 02:23:30;;;;;;;6.17;2.60;;;;;;;16.19;100.00;99668.84;4992007;28;20288;-78
2022/07/06 02:25:58;;;;;;;6.97;2.77;;;;;;;16.04;100.00;99665.56;4989151;28;20207;-78
2022/07/06 02:28:28;;;;;;;3.67;2.60;;;;;;;15.98;100.00;99672.22;4989164;28;20666;-78
2022/07/06 02:30:58;;;;;;;4.93;2.90;;;;;;;16.02;100.00;99663.03;4989214;28;20199;-78
2022/07/06 02:33:26;;;;;;;7.17;3.30;;;;;;;15.85;100.00;99668.81;4989759;28;20254;-79
2022/07/06 02:35:54;;;;;;;5.10;3.50;;;;;;;15.80;100.00;99664.78;4987773;28;20218;-78
2022/07/06 02:38:23;;;;;;;4.93;3.10;;;;;;;15.77;100.00;99671.22;4988041;28;20278;-78
2022/07/06 02:40:52;;;;;;;4.40;2.80;;;;;;;15.77;100.00;99668.56;4986239;28;20225;-78
2022/07/06 02:43:20;;;;;;;2.83;2.50;;;;;;;15.73;100.00;99664.44;4995091;28;20195;-78
2022/07/06 02:45:50;;;;;;;4.90;2.50;;;;;;;15.81;100.00;99664.66;4989943;28;20198;-78
2022/07/06 02:48:21;;;;;;;4.30;2.50;;;;;;;15.80;100.00;99662.13;4990382;28;20203;-78
2022/07/06 02:50:50;;;;;;;6.20;2.47;;;;;;;15.62;100.00;99667.06;4987814;28;20194;-78
2022/07/06 02:53:18;;;;;;;2.87;2.30;;;;;;;15.70;100.00;99673.50;4988681;28;20231;-79
2022/07/06 02:55:46;;;;;;;5.77;2.63;;;;;;;15.57;100.00;99671.88;4990484;28;20226;-78
2022/07/06 02:58:15;;;;;;;3.70;2.10;;;;;;;15.67;100.00;99684.44;4991390;28;20278;-78
2022/07/06 03:00:43;;;;;;;2.63;2.40;;;;;;;15.85;100.00;99679.50;4991484;28;20202;-78
2022/07/06 03:03:13;;;;;;;3.93;2.40;;;;;;;15.86;100.00;99688.38;4987947;28;20202;-78
2022/07/06 03:05:42;;;;;;;9.23;2.40;;;;;;;15.46;100.00;99680.72;4980652;28;20210;-78
2022/07/06 03:08:11;;;;;;;3.80;2.50;;;;;;;15.40;100.00;99690.03;4988457;28;20227;-78
2022/07/06 03:10:39;;;;;;;5.03;2.80;;;;;;;15.32;100.00;99688.88;4992343;28;20211;-78
2022/07/06 03:13:07;;;;;;;3.43;2.67;;;;;;;14.98;100.00;99704.75;4987856;28;20230;-78
2022/07/06 03:15:35;;;;;;;4.77;2.50;;;;;;;14.95;100.00;99691.63;4994678;28;20195;-78
2022/07/06 03:18:04;;;;;;;4.20;2.53;;;;;;;14.92;100.00;99702.53;4995642;28;20642;-78
2022/07/06 03:20:34;;;;;;;3.30;2.27;;;;;;;14.91;100.00;99703.50;4990966;28;20207;-78
2022/07/06 03:23:02;;;;;;;6.17;2.60;;;;;;;14.75;100.00;99705.56;4986580;28;20278;-79
2022/07/06 03:25:32;;;;;;;6.33;2.60;;;;;;;14.67;100.00;99718.59;4986952;28;20195;-78
2022/07/06 03:28:00;;;;;;;3.07;2.30;;;;;;;14.70;100.00;99708.56;4989616;28;20213;-77
2022/07/06 03:30:28;;;;;;;4.63;2.60;;;;;;;14.65;100.00;99716.03;4988132;28;20199;-77
2022/07/06 03:32:56;;;;;;;3.97;2.40;;;;;;;14.79;100.00;99712.41;4988962;28;20222;-77
2022/07/06 03:35:25;;;;;;;6.43;3.00;;;;;;;14.80;100.00;99714.94;4989491;28;20199;-77
2022/07/06 03:37:55;;;;;;;3.37;2.30;;;;;;;14.92;100.00;99720.34;4986392;28;20255;-77
2022/07/06 03:40:23;;;;;;;6.10;2.23;;;;;;;14.99;100.00;99716.28;4985551;28;20191;-78
2022/07/06 03:42:51;;;;;;;4.57;2.47;;;;;;;15.13;100.00;99714.28;4990910;28;20286;-77
2022/07/06 03:45:19;;;;;;;3.27;2.53;;;;;;;15.14;100.00;99715.97;4989227;28;20231;-78
2022/07/06 03:47:48;;;;;;;3.20;2.30;;;;;;;15.16;100.00;99718.56;4986207;28;20431;-77
2022/07/06 03:50:16;;;;;;;3.53;2.30;;;;;;;15.06;100.00;99720.19;4989273;28;20198;-78
2022/07/06 03:52:45;;;;;;;3.60;2.03;;;;;;;14.86;100.00;99716.28;4990245;28;20191;-78
2022/07/06 03:55:14;;;;;;;3.33;2.30;;;;;;;14.93;100.00;99720.22;4984822;28;20219;-78
2022/07/06 03:57:43;;;;;;;6.10;2.47;;;;;;;14.91;100.00;99718.63;4990638;28;20209;-78
2022/07/06 04:00:13;;;;;;;5.33;2.00;;;;;;;14.74;100.00;99730.53;4990347;28;20218;-77
2022/07/06 04:02:42;;;;;;;5.97;2.47;;;;;;;14.76;100.00;99729.44;4987780;28;20214;-77
2022/07/06 04:05:10;;;;;;;6.57;2.40;;;;;;;14.80;100.00;99733.59;4986091;28;20207;-78
2022/07/06 04:07:38;;;;;;;5.23;2.60;;;;;;;14.80;100.00;99741.63;4987613;28;20286;-78
2022/07/06 04:10:08;;;;;;;3.67;2.30;;;;;;;14.76;100.00;99737.44;4987656;28;20214;-77
2022/07/06 04:12:42;;;;;;;4.13;2.20;;;;;;;14.95;100.00;99731.63;4990295;28;20236;-77
2022/07/06 04:15:13;;;;;;;2.97;2.20;;;;;;;14.82;100.00;99741.50;4984297;28;20260;-77
2022/07/06 04:17:53;;;;;;;6.13;2.60;;;;;;;15.00;100.00;99731.31;5001779;28;20206;-78
2022/07/06 04:20:23;;;;;;;3.40;1.93;;;;;;;15.09;100.00;99728.81;4989257;28;20230;-78
2022/07/06 04:22:51;;;;;;;4.00;2.10;;;;;;;15.25;100.00;99728.56;4987651;28;20206;-78
2022/07/06 04:25:20;;;;;;;3.77;2.10;;;;;;;15.31;100.00;99741.44;4993741;28;20199;-78
2022/07/06 04:27:49;;;;;;;3.67;1.87;;;;;;;15.34;100.00;99743.84;4989814;28;20206;-78
2022/07/06 04:30:18;;;;;;;4.57;2.30;;;;;;;15.41;100.00;99741.59;4989989;28;20218;-78
2022/07/06 04:32:46;;;;;;;4.33;2.20;;;;;;;15.44;100.00;99733.34;4990909;28;20263;-78
2022/07/06 04:35:14;;;;;;;5.83;2.13;;;;;;;15.53;100.00;99735.31;4989511;28;20302;-78
2022/07/06 04:37:45;;;;;;;3.90;2.20;;;;;;;15.45;100.00;99745.75;4993484;28;20705;-78
2022/07/06 04:40:13;;;;;;;4.67;2.20;;;;;;;15.51;100.00;99741.75;4994504;28;20227;-78
2022/07/06 04:42:46;;;;;;;4.67;1.90;;;;;;;15.49;100.00;99744.53;4991646;28;20203;-78
2022/07/06 04:45:15;;;;;;;4.70;2.10;;;;;;;15.46;100.00;99750.13;4990019;28;20286;-78
2022/07/06 04:47:44;;;;;;;3.03;2.10;;;;;;;15.44;100.00;99747.56;4990881;28;20274;-78
2022/07/06 04:50:13;;;;;;;4.03;2.03;;;;;;;15.49;100.00;99746.38;4985249;28;20286;-78
2022/07/06 04:52:41;;;;;;;4.50;2.20;;;;;;;15.43;100.00;99742.31;4986978;28;20203;-78
2022/07/06 04:55:10;;;;;;;4.63;2.00;;;;;;;15.38;100.00;99747.16;4991169;28;20222;-78
2022/07/06 04:57:38;;;;;;;2.73;1.90;;;;;;;15.26;100.00;99758.75;4994519;28;20684;-78
2022/07/06 05:00:08;;;;;;;6.37;2.70;;;;;;;15.18;100.00;99757.50;4993110;28;20230;-78
2022/07/06 05:02:37;;;;;;;4.13;2.10;;;;;;;15.14;100.00;99757.81;5004666;28;20298;-78
2022/07/06 05:05:06;;;;;;;2.83;2.40;;;;;;;15.04;100.00;99751.44;4992215;28;20199;-78
2022/07/06 05:07:39;;;;;;;5.40;2.50;;;;;;;15.17;100.00;99769.16;4993966;28;20202;-78
2022/07/06 05:10:09;;;;;;;6.70;2.60;;;;;;;15.11;100.00;99761.56;4991526;28;20286;-78
2022/07/06 05:12:37;;;;;;;4.43;2.30;;;;;;;15.15;100.00;99762.19;4993219;28;20207;-78
2022/07/06 05:15:06;;;;;;;3.97;2.23;;;;;;;15.15;100.00;99762.19;4990113;28;20223;-78
2022/07/06 05:17:35;;;;;;;4.87;2.40;;;;;;;15.16;100.00;99766.59;4992767;28;20197;-77
2022/07/06 05:20:06;;;;;;;3.63;2.00;;;;;;;15.21;100.00;99768.91;4987440;28;20232;-78
2022/07/06 05:22:34;;;;;;;3.63;2.40;;;;;;;15.13;100.00;99770.31;4987526;28;20206;-78
2022/07/06 05:25:10;;;;;;;3.80;2.10;;;;;;;15.05;100.00;99777.16;4991266;28;20199;-78
2022/07/06 05:27:39;;;;;;;5.17;2.20;;;;;;;15.14;100.00;99780.03;4991396;28;20218;-78
2022/07/06 05:30:08;;;;;;;5.63;2.70;;;;;;;15.24;100.00;99763.34;4992898;28;20214;-79
2022/07/06 05:32:36;;;;;;;6.87;2.57;;;;;;;15.37;100.00;99772.16;4917943;28;20202;-78
2022/07/06 05:35:08;;;;;;;4.47;2.67;;;;;;;15.52;100.00;99776.34;4911873;28;20229;-78
2022/07/06 05:37:56;;;;;;;5.43;2.60;;;;;;;15.53;100.00;99780.72;4914082;28;20216;-78
2022/07/06 05:40:24;;;;;;;6.50;2.70;;;;;;;15.70;100.00;99779.50;4912395;28;20280;-78
2022/07/06 05:42:52;;;;;;;5.87;2.30;;;;;;;15.77;100.00;99774.56;4915296;28;20198;-78
2022/07/06 05:45:23;;;;;;;3.20;2.33;;;;;;;15.79;100.00;99776.13;4908836;28;20330;-78
2022/07/06 05:50:39;;;;;;;3.43;2.47;;;;;;;15.76;100.00;99780.88;4912542;28;20190;-78
2022/07/06 05:53:07;;;;;;;4.20;2.30;;;;;;;15.91;100.00;99785.03;4911327;28;20202;-78
2022/07/06 05:55:47;;;;;;;5.30;2.27;;;;;;;16.00;100.00;99787.84;4913367;28;20225;-78
2022/07/06 05:58:15;;;;;;;6.27;2.30;;;;;;;15.97;100.00;99782.75;4985448;28;20222;-78
2022/07/06 06:00:44;;;;;;;3.10;2.00;;;;;;;16.05;100.00;99789.34;4992567;28;20203;-78
2022/07/06 06:03:12;;;;;;;5.03;2.00;;;;;;;16.16;100.00;99790.22;4989507;28;20630;-78
2022/07/06 06:05:42;;;;;;;4.60;2.27;;;;;;;16.16;100.00;99784.88;4988490;28;20252;-78
2022/07/06 06:08:10;;;;;;;6.57;2.27;;;;;;;16.28;100.00;99788.41;4989598;28;20203;-78
2022/07/06 06:10:38;;;;;;;5.50;2.37;;;;;;;16.34;100.00;99789.78;4988322;28;20432;-78
2022/07/06 06:13:07;;;;;;;4.43;2.70;;;;;;;16.29;100.00;99795.47;4988316;28;20212;-78
2022/07/06 06:15:36;;;;;;;3.23;2.63;;;;;;;16.44;100.00;99786.25;4992226;28;20215;-78
2022/07/06 06:18:04;;;;;;;5.40;2.63;;;;;;;16.59;100.00;99787.72;4991996;28;20316;-78
2022/07/06 06:20:33;;;;;;;3.00;2.27;;;;;;;16.65;100.00;99783.72;4988129;28;20204;-78
2022/07/06 06:23:04;;;;;;;7.97;3.20;;;;;;;16.60;100.00;99780.56;4996356;28;20645;-78
2022/07/06 06:25:34;;;;;;;6.63;2.57;;;;;;;16.57;100.00;99788.81;4990198;28;20241;-78
2022/07/06 06:28:03;;;;;;;8.83;2.70;;;;;;;16.82;100.00;99787.75;4992330;28;20223;-78
2022/07/06 06:30:32;;;;;;;5.63;2.60;;;;;;;16.96;100.00;99781.28;4988110;28;20203;-78
2022/07/06 06:33:08;;;;;;;6.93;3.13;;;;;;;16.74;100.00;99787.53;4982311;28;20207;-78
2022/07/06 06:35:37;;;;;;;4.00;3.07;;;;;;;16.57;100.00;99784.31;4990136;28;20317;-78
2022/07/06 06:38:06;;;;;;;7.63;2.80;;;;;;;16.62;100.00;99781.28;4989048;28;20282;-78
2022/07/06 06:40:36;;;;;;;4.37;2.80;;;;;;;17.01;100.00;99782.63;4992027;28;20255;-78
2022/07/06 06:43:05;;;;;;;6.80;3.03;;;;;;;16.97;100.00;99785.66;5031796;28;20198;-78
2022/07/06 06:45:33;;;;;;;4.30;2.83;;;;;;;17.20;100.00;99787.34;5029422;28;20198;-78
2022/07/06 06:48:01;;;;;;;4.17;2.73;;;;;;;17.19;100.00;99791.00;5031755;28;20205;-78
2022/07/06 06:50:29;;;;;;;6.90;3.10;;;;;;;17.19;100.00;99791.00;5028171;28;20209;-78
2022/07/06 06:52:57;;;;;;;5.40;2.77;;;;;;;17.29;100.00;99786.59;5029230;28;20205;-78
2022/07/06 06:55:28;;;;;;;5.67;2.80;;;;;;;17.24;100.00;99791.47;5027946;28;20229;-78
2022/07/06 06:57:56;;;;;;;6.53;2.63;;;;;;;17.48;100.00;99798.50;5031657;28;20205;-78
2022/07/06 07:00:24;;;;;;;5.00;2.87;;;;;;;17.83;100.00;99795.56;5026136;28;20201;-78
2022/07/06 07:02:53;;;;;;;3.57;2.73;;;;;;;17.84;100.00;99791.91;4993644;28;20203;-79
2022/07/06 07:05:21;;;;;;;5.10;2.87;;;;;;;17.65;100.00;99787.22;4991626;28;20207;-78
2022/07/06 07:07:50;;;;;;;3.70;2.37;;;;;;;17.83;100.00;99792.91;4988491;28;20206;-79
2022/07/06 07:10:18;;;;;;;4.27;2.40;;;;;;;17.65;100.00;99792.56;4988884;28;20196;-78
2022/07/06 07:12:49;;;;;;;3.80;2.27;;;;;;;17.86;100.00;99796.19;4985672;28;20261;-78
2022/07/06 07:15:17;;;;;;;5.07;2.77;;;;;;;17.81;100.00;99793.03;4991229;28;20219;-78
2022/07/06 07:17:46;;;;;;;3.10;2.43;;;;;;;17.54;100.00;99790.78;4992136;28;20211;-78
2022/07/06 07:20:14;;;;;;;5.07;2.40;;;;;;;17.58;100.00;99802.09;5001571;28;20230;-78
2022/07/06 07:22:42;;;;;;;4.17;2.23;;;;;;;17.61;100.00;99797.34;4989043;28;20245;-78
2022/07/06 07:25:11;;;;;;;4.33;2.47;;;;;;;17.36;100.00;99803.00;4992143;28;20199;-78
2022/07/06 07:27:39;;;;;;;4.40;2.20;;;;;;;17.65;100.00;99805.97;4988153;28;20206;-78
2022/07/06 07:30:10;;;;;;;5.97;2.90;;;;;;;17.78;100.00;99808.53;4988311;28;20217;-78
2022/07/06 07:32:40;;;;;;;5.10;2.37;;;;;;;17.81;100.00;99808.25;4990997;28;20206;-78
2022/07/06 07:35:09;;;;;;;4.93;2.40;;;;;;;18.02;100.00;99804.63;4926012;28;20208;-78
2022/07/06 07:37:37;;;;;;;4.10;2.20;;;;;;;18.11;100.00;99807.50;4918084;28;20308;-78
2022/07/06 07:40:07;;;;;;;4.27;2.10;;;;;;;18.31;100.00;99802.13;4912106;29;20222;-78
2022/07/06 07:42:35;;;;;;;3.83;2.20;;;;;;;17.91;100.00;99804.66;4912155;28;20280;-78
2022/07/06 07:45:03;;;;;;;5.40;2.50;;;;;;;18.12;100.00;99798.47;4908431;29;20217;-78
2022/07/06 07:47:33;;;;;;;4.30;2.33;;;;;;;18.50;100.00;99798.72;4909412;29;20217;-78
2022/07/06 07:50:01;;;;;;;6.00;2.93;;;;;;;18.80;100.00;99797.06;4908372;29;20209;-78
2022/07/06 07:52:31;;;;;;;3.70;2.33;;;;;;;19.13;100.00;99785.19;4913826;29;20200;-77
2022/07/06 07:54:59;;;;;;;3.57;2.20;;;;;;;18.96;99.70;99788.50;4952168;28;20398;-78
2022/07/06 07:57:47;;;;;;;3.93;2.00;;;;;;;19.05;96.63;99783.16;4951380;28;20260;-78
2022/07/06 08:00:16;;;;;;;2.43;1.90;;;;;;;19.04;91.81;99786.00;4950390;29;20200;-78
2022/07/06 08:02:45;;;;;;;4.37;2.13;;;;;;;19.10;93.10;99782.75;4953322;28;20212;-78
2022/07/06 08:05:15;;;;;;;2.67;1.83;;;;;;;19.02;94.23;99783.44;4955432;28;20200;-78
2022/07/06 08:07:43;;;;;;;4.73;2.20;;;;;;;18.86;95.86;99778.59;4952024;28;20654;-78
2022/07/06 08:10:12;;;;;;;5.27;2.10;;;;;;;18.92;96.58;99779.03;4951847;28;20208;-78
2022/07/06 08:12:40;;;;;;;2.57;2.17;;;;;;;19.44;94.86;99767.97;4951993;28;20224;-78
2022/07/06 08:15:13;;;;;;;2.97;2.20;;;;;;;19.53;91.27;99778.88;4951655;29;20212;-78
2022/07/06 08:17:41;;;;;;;2.73;1.80;;;;;;;19.24;91.39;99768.09;4951622;28;20224;-78
2022/07/06 08:20:12;;;;;;;4.60;2.00;;;;;;;19.14;93.99;99779.66;4950570;28;20200;-78
2022/07/06 08:22:42;;;;;;;3.43;1.90;;;;;;;19.31;93.41;99767.41;4951763;28;20224;-78
2022/07/06 08:25:10;;;;;;;3.13;1.80;;;;;;;19.51;91.13;99775.50;4951262;28;20204;-78
2022/07/06 08:27:40;;;;;;;4.07;2.07;;;;;;;19.70;91.95;99786.28;4949537;29;20201;-78
2022/07/06 08:30:10;;;;;;;4.17;2.10;;;;;;;19.87;88.50;99785.56;4951144;29;20201;-78
2022/07/06 08:32:39;;;;;;;2.37;2.00;;;;;;;19.95;88.20;99779.47;4953431;28;20201;-78
2022/07/06 08:35:29;;;;;;;3.10;1.93;;;;;;;20.03;86.56;99787.69;4950943;28;20200;-78
2022/07/06 08:37:58;;;;;;;4.03;2.20;;;;;;;19.76;85.18;99788.41;4990123;28;20225;-77
2022/07/06 08:40:27;;;;;;;4.27;2.03;;;;;;;20.05;81.96;99784.84;4989848;28;20206;-78
2022/07/06 08:42:57;;;;;;;4.17;1.90;;;;;;;20.08;83.46;99776.50;4987447;28;20196;-78
2022/07/06 08:45:27;;;;;;;2.87;1.60;;;;;;;20.22;86.42;99784.13;4990219;28;20199;-78
2022/07/06 08:47:55;;;;;;;2.50;1.60;;;;;;;20.55;80.14;99783.63;4990142;28;20218;-78
2022/07/06 08:50:25;;;;;;;2.53;1.93;;;;;;;20.56;80.12;99779.97;4986143;28;20309;-78
2022/07/06 08:52:55;;;;;;;2.93;1.70;;;;;;;20.28;80.29;99788.94;4990109;28;20230;-78
2022/07/06 08:55:25;;;;;;;2.23;1.60;;;;;;;19.98;74.90;99789.97;4990902;28;20207;-78
2022/07/06 08:57:55;;;;;;;5.60;1.50;;;;;;;19.84;65.72;99799.28;4990077;28;20223;-78
2022/07/06 09:00:24;;;;;;;1.77;1.30;;;;;;;19.83;66.51;99797.59;4989988;28;20204;-78
2022/07/06 09:02:56;;;;;;;2.10;1.60;;;;;;;20.23;71.39;99794.72;4989918;28;20203;-78
2022/07/06 09:05:25;;;;;;;2.93;1.40;;;;;;;20.23;68.94;99786.66;4988441;28;20760;-78
2022/07/06 09:07:56;;;;;;;2.63;1.70;;;;;;;20.37;70.25;99785.38;4989791;28;20261;-78
2022/07/06 09:10:27;;;;;;;5.97;1.70;;;;;;;20.14;70.74;99787.53;4990634;28;20282;-78
2022/07/06 09:13:04;;;;;;;4.23;1.80;;;;;;;20.51;70.50;99786.78;4993198;28;20195;-78
2022/07/06 09:15:33;;;;;;;3.73;1.70;;;;;;;20.95;65.98;99790.59;4992791;28;20199;-78
2022/07/06 09:18:02;;;;;;;3.20;1.83;;;;;;;21.23;65.53;99783.34;4991067;28;20226;-78
2022/07/06 09:20:31;;;;;;;4.43;1.67;;;;;;;21.57;64.81;99780.03;4988949;28;20199;-78
2022/07/06 09:23:02;;;;;;;2.70;1.87;;;;;;;21.29;65.42;99782.75;4992950;28;20225;-78
2022/07/06 09:25:31;;;;;;;2.97;1.70;;;;;;;20.82;63.52;99784.66;4988079;28;20199;-78
2022/07/06 09:28:00;;;;;;;3.20;1.70;;;;;;;20.53;64.73;99782.94;4992940;28;20206;-78
2022/07/06 09:30:30;;;;;;;3.00;1.77;;;;;;;20.16;67.59;99790.06;4991627;28;20664;-78
2022/07/06 09:32:59;;;;;;;2.90;1.57;;;;;;;19.88;67.71;99789.97;4992760;28;20274;-78
2022/07/06 09:35:29;;;;;;;5.67;1.90;;;;;;;20.33;68.86;99775.03;4991069;28;20203;-78
2022/07/06 09:38:08;;;;;;;3.03;1.90;;;;;;;20.62;67.62;99780.38;4988722;28;20250;-78
2022/07/06 09:40:37;;;;;;;3.17;1.40;;;;;;;20.99;66.38;99781.19;4992813;28;20199;-78
2022/07/06 09:43:11;;;;;;;3.40;1.50;;;;;;;21.07;67.65;99783.16;4992515;28;20238;-78
2022/07/06 09:45:40;;;;;;;2.73;1.50;;;;;;;21.26;65.96;99784.88;4992605;28;20230;-78
2022/07/06 09:48:13;;;;;;;4.20;1.20;;;;;;;21.21;65.35;99784.47;4995948;28;20210;-78
2022/07/06 09:50:46;;;;;;;6.20;1.57;;;;;;;20.85;65.94;99790.63;4991299;28;20199;-78
2022/07/06 09:53:16;;;;;;;2.43;1.63;;;;;;;20.29;68.78;99796.00;4988603;28;20214;-78
2022/07/06 09:55:46;;;;;;;2.80;1.50;;;;;;;20.67;69.18;99796.94;4990471;28;20210;-78
2022/07/06 09:58:17;;;;;;;3.00;1.47;;;;;;;20.67;67.48;99795.09;4988080;28;20262;-78
2022/07/06 10:00:59;;;;;;;1.93;1.37;;;;;;;21.19;65.51;99803.50;4992382;28;20218;-78
2022/07/06 10:03:28;;;;;;;1.70;1.60;;;;;;;21.49;61.80;99794.25;4986273;28;20191;-78
2022/07/06 10:05:56;;;;;;;3.17;1.73;;;;;;;21.92;59.26;99795.38;4985764;28;20285;-78
2022/07/06 10:08:28;;;;;;;2.53;1.40;;;;;;;22.27;55.71;99797.19;4986623;28;20207;-78
2022/07/06 10:10:57;;;;;;;1.87;1.30;;;;;;;22.44;56.24;99796.31;4992558;28;20203;-78
2022/07/06 10:13:27;;;;;;;3.33;1.30;;;;;;;22.80;56.06;99785.38;4989582;28;20206;-78
2022/07/06 10:15:57;;;;;;;1.83;1.50;;;;;;;22.08;57.20;99784.72;4992129;28;20253;-78
2022/07/06 10:18:26;;;;;;;2.47;1.40;;;;;;;22.22;54.90;99786.88;4987528;28;20709;-78
2022/07/06 10:20:55;;;;;;;2.95;1.77;;;;;;;21.45;56.25;99779.41;4986133;28;20203;-78
2022/07/06 10:23:27;;;;;;;2.45;1.50;;;;;;;21.96;55.71;99784.09;4989492;28;20223;-78
2022/07/06 10:25:58;;;;;;;3.58;1.30;;;;;;;22.15;54.76;99782.25;4992021;28;20206;-78
2022/07/06 10:28:27;;;;;;;2.67;1.20;;;;;;;21.96;53.99;99780.56;4991853;28;20199;-78
2022/07/06 10:30:56;;;;;;;1.60;1.25;;;;;;;22.65;51.81;99779.72;4990026;28;20646;-78
2022/07/06 10:33:25;;;;;;;2.17;1.30;;;;;;;22.04;54.42;99772.53;4995597;28;20215;-78
2022/07/06 10:35:57;;;;;;;4.30;1.40;;;;;;;21.60;54.48;99777.00;4987051;28;20231;-78
2022/07/06 10:38:33;;;;;;;4.75;1.50;;;;;;;21.29;55.96;99777.38;4986535;28;20302;-78
2022/07/06 10:41:06;;;;;;;3.50;1.40;;;;;;;21.14;57.23;99782.41;4989117;28;20212;-78
2022/07/06 10:43:38;;;;;;;3.20;1.20;;;;;;;21.59;55.36;99778.88;4988908;28;20237;-78
2022/07/06 10:46:08;;;;;;;2.40;1.27;;;;;;;22.12;53.59;99771.78;4993970;28;20203;-78
2022/07/06 10:48:38;;;;;;;3.43;1.30;;;;;;;22.05;51.76;99771.53;4990650;28;20205;-78
2022/07/06 10:51:08;;;;;;;3.20;1.20;;;;;;;22.53;51.41;99778.31;4991813;28;20207;-78
2022/07/06 10:53:39;;;;;;;3.10;1.20;;;;;;;22.58;49.25;99781.34;4991669;28;20199;-79
2022/07/06 10:56:09;;;;;;;1.70;1.10;;;;;;;22.57;47.92;99782.38;4991831;28;20218;-78
2022/07/06 10:58:41;;;;;;;2.85;1.35;;;;;;;22.71;46.07;99780.94;4992088;28;20219;-79
2022/07/06 11:01:10;;;;;;;2.92;1.40;;;;;;;21.76;48.83;99779.03;4991200;28;20195;-78
2022/07/06 11:03:41;;;;;;;1.57;1.30;;;;;;;21.78;47.87;99782.41;4991639;28;20226;-78
2022/07/06 11:06:20;;;;;;;1.80;1.20;;;;;;;21.78;49.90;99775.16;4991634;28;20534;-78
2022/07/06 11:09:00;;;;;;;5.67;1.53;;;;;;;21.81;48.40;99782.09;4991435;28;20210;-78
2022/07/06 11:11:41;;;;;;;2.47;1.20;;;;;;;22.08;49.08;99768.53;4991507;28;20199;-79
2022/07/06 11:14:11;;;;;;;1.63;1.00;;;;;;;22.16;50.59;99763.22;4991191;28;20233;-78
2022/07/06 11:17:01;;;;;;;2.03;1.08;;;;;;;22.39;49.77;99776.19;4991420;28;20191;-78
2022/07/06 11:19:31;;;;;;;1.90;1.10;;;;;;;22.81;48.00;99774.41;4987161;28;20226;-78
2022/07/06 11:22:07;;;;;;;1.42;0.90;;;;;;;22.76;48.58;99784.00;4991366;28;20253;-79
2022/07/06 11:24:38;;;;;;;2.97;1.30;;;;;;;22.46;47.65;99775.38;4991064;28;20366;-78
2022/07/06 11:27:07;;;;;;;1.98;1.00;;;;;;;22.83;46.96;99772.38;4991193;28;20222;-78
2022/07/06 11:29:38;;;;;;;3.55;1.52;;;;;;;23.58;46.19;99769.78;4947498;29;20197;-79
2022/07/06 11:32:10;;;;;;;2.28;0.98;;;;;;;24.15;41.71;99769.84;4950319;28;20214;-79
2022/07/06 11:34:41;;;;;;;1.80;1.13;;;;;;;24.12;43.04;99775.59;4945671;29;20233;-79
2022/07/06 11:37:11;;;;;;;2.38;1.10;;;;;;;24.39;42.56;99773.56;4957750;28;20256;-79
2022/07/06 11:39:43;;;;;;;3.13;1.05;;;;;;;24.76;41.60;99771.09;4947952;29;20612;-79
2022/07/06 11:42:13;;;;;;;2.15;1.00;;;;;;;24.52;39.97;99763.91;4950059;29;20667;-79